sensor_id;sensor_type;location;lat;lon;timestamp;P1;durP1;ratioP1;P2;durP2;ratioP2
13891;SDS011;7016;48.172;8.058;2022-12-19T00:00:42;38.13;;;19.23;;
13891;SDS011;7016;48.172;8.058;2022-12-19T00:03:08;36.63;;;18.30;;
13891;SDS011;7016;48.172;8.058;2022-12-19T00:05:37;37.85;;;18.33;;
13891;SDS011;7016;48.172;8.058;2022-12-19T00:08:04;38.20;;;18.27;;
13891;SDS011;7016;48.172;8.058;2022-12-19T00:10:36;38.72;;;17.85;;
13891;SDS011;7016;48.172;8.058;2022-12-19T00:13:02;38.15;;;18.10;;
13891;SDS011;7016;48.172;8.058;2022-12-19T00:15:28;37.15;;;18.30;;
13891;SDS011;7016;48.172;8.058;2022-12-19T00:17:53;33.90;;;17.52;;
13891;SDS011;7016;48.172;8.058;2022-12-19T00:20:19;36.67;;;18.25;;
13891;SDS011;7016;48.172;8.058;2022-12-19T00:22:45;36.25;;;17.38;;
13891;SDS011;7016;48.172;8.058;2022-12-19T00:25:10;39.53;;;18.90;;
13891;SDS011;7016;48.172;8.058;2022-12-19T00:27:36;36.70;;;17.88;;
13891;SDS011;7016;48.172;8.058;2022-12-19T00:30:02;36.80;;;17.85;;
13891;SDS011;7016;48.172;8.058;2022-12-19T00:32:28;36.65;;;18.00;;
13891;SDS011;7016;48.172;8.058;2022-12-19T00:34:54;35.60;;;17.73;;
13891;SDS011;7016;48.172;8.058;2022-12-19T00:37:19;38.15;;;18.00;;
13891;SDS011;7016;48.172;8.058;2022-12-19T00:39:45;32.72;;;16.98;;
13891;SDS011;7016;48.172;8.058;2022-12-19T00:42:11;35.40;;;18.17;;
13891;SDS011;7016;48.172;8.058;2022-12-19T00:44:36;29.40;;;15.95;;
13891;SDS011;7016;48.172;8.058;2022-12-19T00:47:02;37.08;;;17.60;;
13891;SDS011;7016;48.172;8.058;2022-12-19T00:49:28;32.13;;;16.33;;
13891;SDS011;7016;48.172;8.058;2022-12-19T00:51:53;33.35;;;16.33;;
13891;SDS011;7016;48.172;8.058;2022-12-19T00:54:21;33.28;;;15.95;;
13891;SDS011;7016;48.172;8.058;2022-12-19T00:56:47;30.95;;;15.77;;
13891;SDS011;7016;48.172;8.058;2022-12-19T00:59:13;32.28;;;16.15;;
13891;SDS011;7016;48.172;8.058;2022-12-19T01:01:39;32.47;;;15.60;;
13891;SDS011;7016;48.172;8.058;2022-12-19T01:04:06;31.17;;;14.98;;
13891;SDS011;7016;48.172;8.058;2022-12-19T01:06:36;30.33;;;15.20;;
13891;SDS011;7016;48.172;8.058;2022-12-19T01:09:02;27.40;;;15.10;;
13891;SDS011;7016;48.172;8.058;2022-12-19T01:11:28;29.00;;;13.95;;
13891;SDS011;7016;48.172;8.058;2022-12-19T01:14:13;27.63;;;14.18;;
13891;SDS011;7016;48.172;8.058;2022-12-19T01:16:39;29.52;;;15.02;;
13891;SDS011;7016;48.172;8.058;2022-12-19T01:19:05;29.13;;;14.25;;
13891;SDS011;7016;48.172;8.058;2022-12-19T01:21:31;28.42;;;13.80;;
13891;SDS011;7016;48.172;8.058;2022-12-19T01:23:57;26.20;;;13.93;;
13891;SDS011;7016;48.172;8.058;2022-12-19T01:26:23;27.60;;;14.05;;
13891;SDS011;7016;48.172;8.058;2022-12-19T01:28:49;29.13;;;15.05;;
13891;SDS011;7016;48.172;8.058;2022-12-19T01:31:14;29.90;;;14.18;;
13891;SDS011;7016;48.172;8.058;2022-12-19T01:33:41;27.63;;;13.77;;
13891;SDS011;7016;48.172;8.058;2022-12-19T01:36:07;26.33;;;13.80;;
13891;SDS011;7016;48.172;8.058;2022-12-19T01:38:34;31.42;;;14.85;;
13891;SDS011;7016;48.172;8.058;2022-12-19T01:41:00;29.27;;;13.68;;
13891;SDS011;7016;48.172;8.058;2022-12-19T01:43:28;26.42;;;13.45;;
13891;SDS011;7016;48.172;8.058;2022-12-19T01:46:04;25.58;;;13.25;;
13891;SDS011;7016;48.172;8.058;2022-12-19T01:48:41;27.20;;;14.30;;
13891;SDS011;7016;48.172;8.058;2022-12-19T01:51:13;23.38;;;12.57;;
13891;SDS011;7016;48.172;8.058;2022-12-19T01:53:43;22.63;;;12.23;;
13891;SDS011;7016;48.172;8.058;2022-12-19T01:56:15;23.77;;;11.80;;
13891;SDS011;7016;48.172;8.058;2022-12-19T01:58:43;24.60;;;12.85;;
13891;SDS011;7016;48.172;8.058;2022-12-19T02:01:11;21.95;;;11.25;;
13891;SDS011;7016;48.172;8.058;2022-12-19T02:03:38;25.17;;;12.70;;
13891;SDS011;7016;48.172;8.058;2022-12-19T02:06:05;24.00;;;12.48;;
13891;SDS011;7016;48.172;8.058;2022-12-19T02:08:32;25.98;;;13.10;;
13891;SDS011;7016;48.172;8.058;2022-12-19T02:10:59;25.40;;;12.63;;
13891;SDS011;7016;48.172;8.058;2022-12-19T02:13:24;26.30;;;11.82;;
13891;SDS011;7016;48.172;8.058;2022-12-19T02:16:02;22.92;;;11.73;;
13891;SDS011;7016;48.172;8.058;2022-12-19T02:18:40;23.20;;;11.95;;
13891;SDS011;7016;48.172;8.058;2022-12-19T02:21:13;20.58;;;10.60;;
13891;SDS011;7016;48.172;8.058;2022-12-19T02:32:47;21.20;;;10.85;;
13891;SDS011;7016;48.172;8.058;2022-12-19T02:38:03;23.02;;;10.68;;
13891;SDS011;7016;48.172;8.058;2022-12-19T02:40:57;20.30;;;10.18;;
13891;SDS011;7016;48.172;8.058;2022-12-19T02:43:38;19.63;;;9.82;;
13891;SDS011;7016;48.172;8.058;2022-12-19T02:46:06;21.85;;;11.32;;
13891;SDS011;7016;48.172;8.058;2022-12-19T02:48:33;17.60;;;9.82;;
13891;SDS011;7016;48.172;8.058;2022-12-19T02:50:59;18.10;;;9.65;;
13891;SDS011;7016;48.172;8.058;2022-12-19T02:53:25;20.92;;;10.02;;
13891;SDS011;7016;48.172;8.058;2022-12-19T02:58:42;18.45;;;9.93;;
13891;SDS011;7016;48.172;8.058;2022-12-19T03:04:05;18.75;;;9.13;;
13891;SDS011;7016;48.172;8.058;2022-12-19T03:07:24;18.27;;;9.65;;
13891;SDS011;7016;48.172;8.058;2022-12-19T03:12:21;15.25;;;8.85;;
13891;SDS011;7016;48.172;8.058;2022-12-19T03:14:52;16.05;;;9.05;;
13891;SDS011;7016;48.172;8.058;2022-12-19T03:17:20;16.67;;;8.68;;
13891;SDS011;7016;48.172;8.058;2022-12-19T03:19:46;18.42;;;8.88;;
13891;SDS011;7016;48.172;8.058;2022-12-19T03:22:12;18.83;;;8.52;;
13891;SDS011;7016;48.172;8.058;2022-12-19T03:24:38;19.20;;;9.13;;
13891;SDS011;7016;48.172;8.058;2022-12-19T03:27:07;14.82;;;7.82;;
13891;SDS011;7016;48.172;8.058;2022-12-19T03:29:43;14.50;;;8.15;;
13891;SDS011;7016;48.172;8.058;2022-12-19T03:32:15;19.35;;;9.65;;
13891;SDS011;7016;48.172;8.058;2022-12-19T03:34:44;18.00;;;9.13;;
13891;SDS011;7016;48.172;8.058;2022-12-19T03:37:15;17.25;;;8.52;;
13891;SDS011;7016;48.172;8.058;2022-12-19T03:39:45;20.08;;;9.63;;
13891;SDS011;7016;48.172;8.058;2022-12-19T03:42:13;17.88;;;9.23;;
13891;SDS011;7016;48.172;8.058;2022-12-19T03:45:00;12.40;;;7.13;;
13891;SDS011;7016;48.172;8.058;2022-12-19T03:47:33;12.00;;;6.30;;
13891;SDS011;7016;48.172;8.058;2022-12-19T03:50:05;12.35;;;6.75;;
13891;SDS011;7016;48.172;8.058;2022-12-19T03:52:40;10.68;;;6.07;;
13891;SDS011;7016;48.172;8.058;2022-12-19T04:00:52;12.02;;;6.60;;
13891;SDS011;7016;48.172;8.058;2022-12-19T04:03:19;10.52;;;6.47;;
13891;SDS011;7016;48.172;8.058;2022-12-19T04:05:46;13.45;;;7.25;;
13891;SDS011;7016;48.172;8.058;2022-12-19T04:08:13;14.05;;;7.00;;
13891;SDS011;7016;48.172;8.058;2022-12-19T04:10:47;12.70;;;6.70;;
13891;SDS011;7016;48.172;8.058;2022-12-19T04:13:17;14.70;;;6.70;;
13891;SDS011;7016;48.172;8.058;2022-12-19T04:18:31;9.40;;;5.50;;
13891;SDS011;7016;48.172;8.058;2022-12-19T04:20:59;10.18;;;5.40;;
13891;SDS011;7016;48.172;8.058;2022-12-19T04:23:33;10.57;;;5.35;;
13891;SDS011;7016;48.172;8.058;2022-12-19T04:26:04;10.70;;;6.10;;
13891;SDS011;7016;48.172;8.058;2022-12-19T04:28:32;19.70;;;9.48;;
13891;SDS011;7016;48.172;8.058;2022-12-19T04:31:02;46.63;;;22.60;;
13891;SDS011;7016;48.172;8.058;2022-12-19T04:33:29;49.92;;;24.00;;
13891;SDS011;7016;48.172;8.058;2022-12-19T04:35:55;13.00;;;7.18;;
13891;SDS011;7016;48.172;8.058;2022-12-19T04:38:21;7.80;;;4.85;;
13891;SDS011;7016;48.172;8.058;2022-12-19T04:40:47;8.88;;;4.90;;
13891;SDS011;7016;48.172;8.058;2022-12-19T04:43:12;11.60;;;5.13;;
13891;SDS011;7016;48.172;8.058;2022-12-19T04:45:41;10.73;;;5.75;;
13891;SDS011;7016;48.172;8.058;2022-12-19T04:48:07;10.23;;;5.10;;
13891;SDS011;7016;48.172;8.058;2022-12-19T04:50:33;6.30;;;4.07;;
13891;SDS011;7016;48.172;8.058;2022-12-19T04:52:59;7.28;;;4.32;;
13891;SDS011;7016;48.172;8.058;2022-12-19T04:55:25;6.53;;;3.92;;
13891;SDS011;7016;48.172;8.058;2022-12-19T04:57:51;8.50;;;4.75;;
13891;SDS011;7016;48.172;8.058;2022-12-19T05:00:17;8.15;;;4.55;;
13891;SDS011;7016;48.172;8.058;2022-12-19T05:02:42;7.45;;;4.47;;
13891;SDS011;7016;48.172;8.058;2022-12-19T05:05:08;10.38;;;6.18;;
13891;SDS011;7016;48.172;8.058;2022-12-19T05:07:34;13.23;;;7.05;;
13891;SDS011;7016;48.172;8.058;2022-12-19T05:10:00;13.85;;;7.40;;
13891;SDS011;7016;48.172;8.058;2022-12-19T05:12:29;7.43;;;4.00;;
13891;SDS011;7016;48.172;8.058;2022-12-19T05:14:55;7.60;;;4.35;;
13891;SDS011;7016;48.172;8.058;2022-12-19T05:17:20;6.90;;;4.22;;
13891;SDS011;7016;48.172;8.058;2022-12-19T05:19:46;8.73;;;4.65;;
13891;SDS011;7016;48.172;8.058;2022-12-19T05:22:12;45.22;;;24.25;;
13891;SDS011;7016;48.172;8.058;2022-12-19T05:24:37;10.07;;;5.43;;
13891;SDS011;7016;48.172;8.058;2022-12-19T05:27:03;11.02;;;6.10;;
13891;SDS011;7016;48.172;8.058;2022-12-19T05:29:29;39.90;;;22.35;;
13891;SDS011;7016;48.172;8.058;2022-12-19T05:31:54;17.45;;;10.85;;
13891;SDS011;7016;48.172;8.058;2022-12-19T05:34:20;21.70;;;13.80;;
13891;SDS011;7016;48.172;8.058;2022-12-19T05:36:47;28.70;;;18.23;;
13891;SDS011;7016;48.172;8.058;2022-12-19T05:39:13;28.38;;;18.30;;
13891;SDS011;7016;48.172;8.058;2022-12-19T05:41:39;17.52;;;11.70;;
13891;SDS011;7016;48.172;8.058;2022-12-19T05:44:04;14.43;;;7.32;;
13891;SDS011;7016;48.172;8.058;2022-12-19T05:46:30;10.60;;;6.20;;
13891;SDS011;7016;48.172;8.058;2022-12-19T05:48:56;8.95;;;5.15;;
13891;SDS011;7016;48.172;8.058;2022-12-19T05:51:21;10.70;;;4.82;;
13891;SDS011;7016;48.172;8.058;2022-12-19T05:53:47;9.27;;;4.45;;
13891;SDS011;7016;48.172;8.058;2022-12-19T05:56:14;10.15;;;5.28;;
13891;SDS011;7016;48.172;8.058;2022-12-19T05:58:41;7.95;;;4.18;;
13891;SDS011;7016;48.172;8.058;2022-12-19T06:01:16;7.00;;;3.95;;
13891;SDS011;7016;48.172;8.058;2022-12-19T06:03:42;8.98;;;4.28;;
13891;SDS011;7016;48.172;8.058;2022-12-19T06:06:09;8.85;;;4.15;;
13891;SDS011;7016;48.172;8.058;2022-12-19T06:08:37;5.75;;;3.47;;
13891;SDS011;7016;48.172;8.058;2022-12-19T06:11:04;9.65;;;4.35;;
13891;SDS011;7016;48.172;8.058;2022-12-19T06:13:30;9.10;;;4.30;;
13891;SDS011;7016;48.172;8.058;2022-12-19T06:16:00;8.13;;;4.63;;
13891;SDS011;7016;48.172;8.058;2022-12-19T06:18:29;6.82;;;3.97;;
13891;SDS011;7016;48.172;8.058;2022-12-19T06:20:55;8.88;;;4.60;;
13891;SDS011;7016;48.172;8.058;2022-12-19T06:23:22;8.77;;;4.50;;
13891;SDS011;7016;48.172;8.058;2022-12-19T06:25:48;6.47;;;3.63;;
13891;SDS011;7016;48.172;8.058;2022-12-19T06:28:14;7.30;;;4.35;;
13891;SDS011;7016;48.172;8.058;2022-12-19T06:30:39;5.55;;;3.65;;
13891;SDS011;7016;48.172;8.058;2022-12-19T06:33:05;7.53;;;4.07;;
13891;SDS011;7016;48.172;8.058;2022-12-19T06:35:31;8.18;;;4.00;;
13891;SDS011;7016;48.172;8.058;2022-12-19T06:37:56;8.52;;;4.40;;
13891;SDS011;7016;48.172;8.058;2022-12-19T06:40:22;10.05;;;4.60;;
13891;SDS011;7016;48.172;8.058;2022-12-19T06:43:06;7.45;;;3.97;;
13891;SDS011;7016;48.172;8.058;2022-12-19T06:45:32;11.55;;;3.72;;
13891;SDS011;7016;48.172;8.058;2022-12-19T06:47:58;7.70;;;4.38;;
13891;SDS011;7016;48.172;8.058;2022-12-19T06:50:23;10.90;;;4.70;;
13891;SDS011;7016;48.172;8.058;2022-12-19T06:52:49;7.63;;;4.15;;
13891;SDS011;7016;48.172;8.058;2022-12-19T06:55:15;10.68;;;5.35;;
13891;SDS011;7016;48.172;8.058;2022-12-19T06:57:41;9.77;;;3.70;;
13891;SDS011;7016;48.172;8.058;2022-12-19T07:00:11;12.35;;;3.85;;
13891;SDS011;7016;48.172;8.058;2022-12-19T07:02:43;6.82;;;4.25;;
13891;SDS011;7016;48.172;8.058;2022-12-19T07:05:12;9.60;;;5.90;;
13891;SDS011;7016;48.172;8.058;2022-12-19T07:07:38;8.55;;;4.68;;
13891;SDS011;7016;48.172;8.058;2022-12-19T07:10:05;7.10;;;3.97;;
13891;SDS011;7016;48.172;8.058;2022-12-19T07:12:32;8.52;;;4.53;;
13891;SDS011;7016;48.172;8.058;2022-12-19T07:14:59;6.93;;;4.05;;
13891;SDS011;7016;48.172;8.058;2022-12-19T07:17:25;11.23;;;5.03;;
13891;SDS011;7016;48.172;8.058;2022-12-19T07:19:53;9.43;;;6.00;;
13891;SDS011;7016;48.172;8.058;2022-12-19T07:22:21;9.73;;;5.13;;
13891;SDS011;7016;48.172;8.058;2022-12-19T07:24:48;12.18;;;7.28;;
13891;SDS011;7016;48.172;8.058;2022-12-19T07:27:14;9.23;;;5.00;;
13891;SDS011;7016;48.172;8.058;2022-12-19T07:29:40;8.15;;;5.07;;
13891;SDS011;7016;48.172;8.058;2022-12-19T07:32:06;7.88;;;4.40;;
13891;SDS011;7016;48.172;8.058;2022-12-19T07:34:31;6.72;;;3.63;;
13891;SDS011;7016;48.172;8.058;2022-12-19T07:36:57;14.80;;;8.50;;
13891;SDS011;7016;48.172;8.058;2022-12-19T07:39:23;20.60;;;11.10;;
13891;SDS011;7016;48.172;8.058;2022-12-19T07:41:49;9.95;;;5.55;;
13891;SDS011;7016;48.172;8.058;2022-12-19T07:44:14;8.50;;;5.93;;
13891;SDS011;7016;48.172;8.058;2022-12-19T07:46:41;14.15;;;7.47;;
13891;SDS011;7016;48.172;8.058;2022-12-19T07:49:07;11.43;;;5.15;;
13891;SDS011;7016;48.172;8.058;2022-12-19T07:51:33;17.38;;;9.00;;
13891;SDS011;7016;48.172;8.058;2022-12-19T07:53:58;13.00;;;7.32;;
13891;SDS011;7016;48.172;8.058;2022-12-19T07:56:24;10.25;;;4.80;;
13891;SDS011;7016;48.172;8.058;2022-12-19T07:58:50;23.38;;;10.02;;
13891;SDS011;7016;48.172;8.058;2022-12-19T08:01:16;11.85;;;5.60;;
13891;SDS011;7016;48.172;8.058;2022-12-19T08:03:42;12.02;;;7.18;;
13891;SDS011;7016;48.172;8.058;2022-12-19T08:06:08;9.68;;;6.13;;
13891;SDS011;7016;48.172;8.058;2022-12-19T08:08:34;12.40;;;7.97;;
13891;SDS011;7016;48.172;8.058;2022-12-19T08:11:10;12.82;;;7.65;;
13891;SDS011;7016;48.172;8.058;2022-12-19T08:13:37;9.75;;;6.28;;
13891;SDS011;7016;48.172;8.058;2022-12-19T08:16:03;12.40;;;7.45;;
13891;SDS011;7016;48.172;8.058;2022-12-19T08:18:29;9.68;;;6.05;;
13891;SDS011;7016;48.172;8.058;2022-12-19T08:20:56;11.05;;;6.80;;
13891;SDS011;7016;48.172;8.058;2022-12-19T08:23:21;11.98;;;6.90;;
13891;SDS011;7016;48.172;8.058;2022-12-19T08:25:47;16.17;;;8.20;;
13891;SDS011;7016;48.172;8.058;2022-12-19T08:28:13;14.27;;;7.47;;
13891;SDS011;7016;48.172;8.058;2022-12-19T08:30:39;10.48;;;6.50;;
13891;SDS011;7016;48.172;8.058;2022-12-19T08:33:06;13.15;;;7.10;;
13891;SDS011;7016;48.172;8.058;2022-12-19T08:35:32;9.45;;;5.95;;
13891;SDS011;7016;48.172;8.058;2022-12-19T08:37:59;11.63;;;6.20;;
13891;SDS011;7016;48.172;8.058;2022-12-19T08:40:26;8.75;;;5.28;;
13891;SDS011;7016;48.172;8.058;2022-12-19T08:43:04;11.38;;;5.40;;
13891;SDS011;7016;48.172;8.058;2022-12-19T08:45:30;7.82;;;5.18;;
13891;SDS011;7016;48.172;8.058;2022-12-19T08:47:56;10.88;;;4.68;;
13891;SDS011;7016;48.172;8.058;2022-12-19T08:50:21;8.13;;;4.63;;
13891;SDS011;7016;48.172;8.058;2022-12-19T08:52:47;8.13;;;4.68;;
13891;SDS011;7016;48.172;8.058;2022-12-19T08:55:13;7.15;;;5.15;;
13891;SDS011;7016;48.172;8.058;2022-12-19T08:57:39;8.55;;;5.05;;
13891;SDS011;7016;48.172;8.058;2022-12-19T09:00:04;8.40;;;4.85;;
13891;SDS011;7016;48.172;8.058;2022-12-19T09:02:31;9.63;;;5.82;;
13891;SDS011;7016;48.172;8.058;2022-12-19T09:04:56;10.43;;;5.60;;
13891;SDS011;7016;48.172;8.058;2022-12-19T09:07:22;13.38;;;6.55;;
13891;SDS011;7016;48.172;8.058;2022-12-19T09:09:48;13.90;;;6.10;;
13891;SDS011;7016;48.172;8.058;2022-12-19T09:12:14;14.60;;;6.35;;
13891;SDS011;7016;48.172;8.058;2022-12-19T09:14:40;17.67;;;7.65;;
13891;SDS011;7016;48.172;8.058;2022-12-19T09:17:08;38.15;;;12.68;;
13891;SDS011;7016;48.172;8.058;2022-12-19T09:19:34;22.75;;;9.70;;
13891;SDS011;7016;48.172;8.058;2022-12-19T09:21:59;26.48;;;11.98;;
13891;SDS011;7016;48.172;8.058;2022-12-19T09:24:25;29.25;;;13.15;;
13891;SDS011;7016;48.172;8.058;2022-12-19T09:26:51;26.70;;;12.25;;
13891;SDS011;7016;48.172;8.058;2022-12-19T09:29:17;33.05;;;13.15;;
13891;SDS011;7016;48.172;8.058;2022-12-19T09:31:42;17.67;;;8.75;;
13891;SDS011;7016;48.172;8.058;2022-12-19T09:34:08;22.35;;;8.30;;
13891;SDS011;7016;48.172;8.058;2022-12-19T09:36:34;35.58;;;11.95;;
13891;SDS011;7016;48.172;8.058;2022-12-19T09:38:59;29.65;;;9.20;;
13891;SDS011;7016;48.172;8.058;2022-12-19T09:47:32;17.55;;;7.03;;
13891;SDS011;7016;48.172;8.058;2022-12-19T09:49:58;42.00;;;16.80;;
13891;SDS011;7016;48.172;8.058;2022-12-19T10:00:01;16.30;;;8.60;;
13891;SDS011;7016;48.172;8.058;2022-12-19T10:05:22;13.95;;;7.63;;
13891;SDS011;7016;48.172;8.058;2022-12-19T10:08:09;13.25;;;8.20;;
13891;SDS011;7016;48.172;8.058;2022-12-19T10:15:59;7.95;;;4.53;;
13891;SDS011;7016;48.172;8.058;2022-12-19T10:26:56;7.60;;;4.00;;
13891;SDS011;7016;48.172;8.058;2022-12-19T10:35:23;15.27;;;8.82;;
13891;SDS011;7016;48.172;8.058;2022-12-19T10:46:10;11.18;;;6.70;;
13891;SDS011;7016;48.172;8.058;2022-12-19T10:48:44;16.35;;;9.07;;
13891;SDS011;7016;48.172;8.058;2022-12-19T10:51:11;14.95;;;6.32;;
13891;SDS011;7016;48.172;8.058;2022-12-19T10:53:37;10.90;;;6.20;;
13891;SDS011;7016;48.172;8.058;2022-12-19T10:56:23;19.33;;;9.52;;
13891;SDS011;7016;48.172;8.058;2022-12-19T10:58:54;16.88;;;8.95;;
13891;SDS011;7016;48.172;8.058;2022-12-19T11:01:27;10.90;;;5.53;;
13891;SDS011;7016;48.172;8.058;2022-12-19T11:04:14;15.50;;;8.13;;
13891;SDS011;7016;48.172;8.058;2022-12-19T11:09:31;13.45;;;7.13;;
13891;SDS011;7016;48.172;8.058;2022-12-19T11:14:42;13.77;;;7.53;;
13891;SDS011;7016;48.172;8.058;2022-12-19T11:19:56;16.90;;;9.77;;
13891;SDS011;7016;48.172;8.058;2022-12-19T11:25:00;11.98;;;7.13;;
13891;SDS011;7016;48.172;8.058;2022-12-19T11:32:40;14.98;;;8.20;;
13891;SDS011;7016;48.172;8.058;2022-12-19T11:35:24;11.38;;;7.25;;
13891;SDS011;7016;48.172;8.058;2022-12-19T11:38:00;12.38;;;7.60;;
13891;SDS011;7016;48.172;8.058;2022-12-19T11:40:31;10.95;;;6.93;;
13891;SDS011;7016;48.172;8.058;2022-12-19T11:42:58;12.70;;;7.65;;
13891;SDS011;7016;48.172;8.058;2022-12-19T11:48:09;11.57;;;7.00;;
13891;SDS011;7016;48.172;8.058;2022-12-19T11:53:57;28.23;;;16.75;;
13891;SDS011;7016;48.172;8.058;2022-12-19T11:56:26;26.60;;;15.88;;
13891;SDS011;7016;48.172;8.058;2022-12-19T11:58:54;20.52;;;11.48;;
13891;SDS011;7016;48.172;8.058;2022-12-19T12:07:26;19.35;;;10.07;;
13891;SDS011;7016;48.172;8.058;2022-12-19T12:10:15;18.92;;;9.98;;
13891;SDS011;7016;48.172;8.058;2022-12-19T12:13:02;16.55;;;10.27;;
13891;SDS011;7016;48.172;8.058;2022-12-19T12:15:49;14.98;;;8.80;;
13891;SDS011;7016;48.172;8.058;2022-12-19T12:26:47;26.80;;;15.18;;
13891;SDS011;7016;48.172;8.058;2022-12-19T12:29:30;20.35;;;12.00;;
13891;SDS011;7016;48.172;8.058;2022-12-19T12:32:21;17.75;;;10.45;;
13891;SDS011;7016;48.172;8.058;2022-12-19T12:37:40;12.80;;;7.95;;
13891;SDS011;7016;48.172;8.058;2022-12-19T12:45:49;19.38;;;9.82;;
13891;SDS011;7016;48.172;8.058;2022-12-19T12:50:57;11.52;;;7.13;;
13891;SDS011;7016;48.172;8.058;2022-12-19T12:53:25;7.47;;;5.50;;
13891;SDS011;7016;48.172;8.058;2022-12-19T12:55:57;8.38;;;6.55;;
13891;SDS011;7016;48.172;8.058;2022-12-19T13:06:37;12.07;;;7.53;;
13891;SDS011;7016;48.172;8.058;2022-12-19T13:09:19;9.65;;;6.78;;
13891;SDS011;7016;48.172;8.058;2022-12-19T13:11:49;10.95;;;6.55;;
13891;SDS011;7016;48.172;8.058;2022-12-19T13:14:47;8.30;;;5.47;;
13891;SDS011;7016;48.172;8.058;2022-12-19T13:17:23;8.52;;;6.50;;
13891;SDS011;7016;48.172;8.058;2022-12-19T13:22:37;21.10;;;11.55;;
13891;SDS011;7016;48.172;8.058;2022-12-19T13:30:27;10.98;;;7.30;;
13891;SDS011;7016;48.172;8.058;2022-12-19T13:46:05;17.08;;;9.57;;
13891;SDS011;7016;48.172;8.058;2022-12-19T13:48:44;12.98;;;6.15;;
13891;SDS011;7016;48.172;8.058;2022-12-19T13:51:12;6.85;;;4.38;;
13891;SDS011;7016;48.172;8.058;2022-12-19T13:53:39;6.63;;;3.97;;
13891;SDS011;7016;48.172;8.058;2022-12-19T13:56:14;48.75;;;18.90;;
13891;SDS011;7016;48.172;8.058;2022-12-19T13:58:54;23.83;;;10.07;;
13891;SDS011;7016;48.172;8.058;2022-12-19T14:01:27;16.58;;;8.82;;
13891;SDS011;7016;48.172;8.058;2022-12-19T14:03:54;17.77;;;8.50;;
13891;SDS011;7016;48.172;8.058;2022-12-19T14:06:43;21.38;;;8.82;;
13891;SDS011;7016;48.172;8.058;2022-12-19T14:11:55;15.50;;;6.68;;
13891;SDS011;7016;48.172;8.058;2022-12-19T14:14:24;9.35;;;5.75;;
13891;SDS011;7016;48.172;8.058;2022-12-19T14:17:12;10.82;;;6.13;;
13891;SDS011;7016;48.172;8.058;2022-12-19T14:19:39;12.93;;;8.07;;
13891;SDS011;7016;48.172;8.058;2022-12-19T14:22:13;10.40;;;6.78;;
13891;SDS011;7016;48.172;8.058;2022-12-19T14:24:59;13.48;;;8.55;;
13891;SDS011;7016;48.172;8.058;2022-12-19T14:27:33;10.57;;;7.57;;
13891;SDS011;7016;48.172;8.058;2022-12-19T14:30:00;11.35;;;6.80;;
13891;SDS011;7016;48.172;8.058;2022-12-19T14:32:29;12.45;;;6.95;;
13891;SDS011;7016;48.172;8.058;2022-12-19T14:34:58;14.50;;;6.97;;
13891;SDS011;7016;48.172;8.058;2022-12-19T14:37:31;12.67;;;6.87;;
13891;SDS011;7016;48.172;8.058;2022-12-19T14:40:04;12.13;;;7.80;;
13891;SDS011;7016;48.172;8.058;2022-12-19T14:42:50;13.65;;;8.75;;
13891;SDS011;7016;48.172;8.058;2022-12-19T14:45:39;11.15;;;7.45;;
13891;SDS011;7016;48.172;8.058;2022-12-19T14:51:10;14.48;;;8.75;;
13891;SDS011;7016;48.172;8.058;2022-12-19T14:53:38;18.58;;;11.00;;
13891;SDS011;7016;48.172;8.058;2022-12-19T14:56:15;17.60;;;10.70;;
13891;SDS011;7016;48.172;8.058;2022-12-19T14:58:45;11.90;;;8.40;;
13891;SDS011;7016;48.172;8.058;2022-12-19T15:01:21;14.60;;;9.38;;
13891;SDS011;7016;48.172;8.058;2022-12-19T15:03:59;17.35;;;8.80;;
13891;SDS011;7016;48.172;8.058;2022-12-19T15:06:28;13.80;;;8.02;;
13891;SDS011;7016;48.172;8.058;2022-12-19T15:09:02;15.43;;;7.88;;
13891;SDS011;7016;48.172;8.058;2022-12-19T15:11:34;11.25;;;6.03;;
13891;SDS011;7016;48.172;8.058;2022-12-19T15:14:27;10.13;;;6.95;;
13891;SDS011;7016;48.172;8.058;2022-12-19T15:17:09;11.77;;;7.40;;
13891;SDS011;7016;48.172;8.058;2022-12-19T15:19:42;15.57;;;9.43;;
13891;SDS011;7016;48.172;8.058;2022-12-19T15:22:07;14.23;;;9.43;;
13891;SDS011;7016;48.172;8.058;2022-12-19T15:24:33;14.93;;;8.10;;
13891;SDS011;7016;48.172;8.058;2022-12-19T15:26:59;12.93;;;8.45;;
13891;SDS011;7016;48.172;8.058;2022-12-19T15:29:26;12.18;;;7.07;;
13891;SDS011;7016;48.172;8.058;2022-12-19T15:31:52;12.15;;;7.57;;
13891;SDS011;7016;48.172;8.058;2022-12-19T15:34:28;10.60;;;6.90;;
13891;SDS011;7016;48.172;8.058;2022-12-19T15:36:58;11.90;;;6.97;;
13891;SDS011;7016;48.172;8.058;2022-12-19T15:39:24;15.40;;;8.27;;
13891;SDS011;7016;48.172;8.058;2022-12-19T15:41:54;14.43;;;8.60;;
13891;SDS011;7016;48.172;8.058;2022-12-19T15:44:24;48.80;;;27.60;;
13891;SDS011;7016;48.172;8.058;2022-12-19T15:47:09;19.48;;;10.95;;
13891;SDS011;7016;48.172;8.058;2022-12-19T15:49:45;13.75;;;7.68;;
13891;SDS011;7016;48.172;8.058;2022-12-19T15:52:15;19.60;;;10.93;;
13891;SDS011;7016;48.172;8.058;2022-12-19T15:54:43;14.27;;;8.32;;
13891;SDS011;7016;48.172;8.058;2022-12-19T15:57:21;15.05;;;9.55;;
13891;SDS011;7016;48.172;8.058;2022-12-19T15:59:55;12.70;;;8.63;;
13891;SDS011;7016;48.172;8.058;2022-12-19T16:02:24;12.23;;;7.75;;
13891;SDS011;7016;48.172;8.058;2022-12-19T16:04:51;11.13;;;7.20;;
13891;SDS011;7016;48.172;8.058;2022-12-19T16:07:19;11.18;;;6.85;;
13891;SDS011;7016;48.172;8.058;2022-12-19T16:09:46;14.18;;;8.20;;
13891;SDS011;7016;48.172;8.058;2022-12-19T16:12:55;10.18;;;6.97;;
13891;SDS011;7016;48.172;8.058;2022-12-19T16:15:05;11.00;;;6.93;;
13891;SDS011;7016;48.172;8.058;2022-12-19T16:17:52;11.73;;;6.03;;
13891;SDS011;7016;48.172;8.058;2022-12-19T16:20:20;13.13;;;7.95;;
13891;SDS011;7016;48.172;8.058;2022-12-19T16:22:58;7.97;;;5.72;;
13891;SDS011;7016;48.172;8.058;2022-12-19T16:25:26;8.27;;;5.47;;
13891;SDS011;7016;48.172;8.058;2022-12-19T16:27:59;9.93;;;6.32;;
13891;SDS011;7016;48.172;8.058;2022-12-19T16:30:29;7.75;;;4.93;;
13891;SDS011;7016;48.172;8.058;2022-12-19T16:32:57;7.85;;;5.53;;
13891;SDS011;7016;48.172;8.058;2022-12-19T16:35:24;16.00;;;8.82;;
13891;SDS011;7016;48.172;8.058;2022-12-19T16:37:51;9.88;;;6.82;;
13891;SDS011;7016;48.172;8.058;2022-12-19T16:40:18;12.48;;;7.82;;
13891;SDS011;7016;48.172;8.058;2022-12-19T16:42:50;10.40;;;7.15;;
13891;SDS011;7016;48.172;8.058;2022-12-19T16:45:27;9.65;;;6.80;;
13891;SDS011;7016;48.172;8.058;2022-12-19T16:47:53;10.50;;;7.78;;
13891;SDS011;7016;48.172;8.058;2022-12-19T16:50:20;14.05;;;8.95;;
13891;SDS011;7016;48.172;8.058;2022-12-19T16:52:52;12.95;;;8.90;;
13891;SDS011;7016;48.172;8.058;2022-12-19T16:55:22;17.13;;;10.68;;
13891;SDS011;7016;48.172;8.058;2022-12-19T16:57:49;16.60;;;9.70;;
13891;SDS011;7016;48.172;8.058;2022-12-19T17:00:19;9.95;;;6.95;;
13891;SDS011;7016;48.172;8.058;2022-12-19T17:05:32;24.65;;;14.40;;
13891;SDS011;7016;48.172;8.058;2022-12-19T17:07:59;18.90;;;13.30;;
13891;SDS011;7016;48.172;8.058;2022-12-19T17:10:29;17.92;;;11.98;;
13891;SDS011;7016;48.172;8.058;2022-12-19T17:12:57;20.48;;;11.43;;
13891;SDS011;7016;48.172;8.058;2022-12-19T17:15:26;14.38;;;9.48;;
13891;SDS011;7016;48.172;8.058;2022-12-19T17:17:58;14.68;;;9.27;;
13891;SDS011;7016;48.172;8.058;2022-12-19T17:20:29;16.17;;;10.68;;
13891;SDS011;7016;48.172;8.058;2022-12-19T17:22:59;17.15;;;10.15;;
13891;SDS011;7016;48.172;8.058;2022-12-19T17:25:25;15.93;;;10.23;;
13891;SDS011;7016;48.172;8.058;2022-12-19T17:27:52;15.73;;;9.65;;
13891;SDS011;7016;48.172;8.058;2022-12-19T17:30:19;14.40;;;10.05;;
13891;SDS011;7016;48.172;8.058;2022-12-19T17:32:46;16.85;;;11.07;;
13891;SDS011;7016;48.172;8.058;2022-12-19T17:35:18;15.20;;;10.15;;
13891;SDS011;7016;48.172;8.058;2022-12-19T17:37:50;18.70;;;11.35;;